KADM/ADM METAR and TAF weather

Enter ICAO airport designator
Station Type Date Time Source
KADM METAR 2020/09/20 13:55 UTC NOAA

KADM 201355Z 00000KT 7SM CLR 13/13 A3021


Station Type Date Time Source
KADM Decoded METAR 2020/09/20 13:55 UTC NOAA

Ardmore, Ardmore Municipal Airport, OK, United States (KADM) 34-18-11N 097-01-10W
Sep 20, 2020 - 09:55 AM EDT / 2020.09.20 1355 UTC
Wind: Calm:0
Visibility: 7 mile(s):0
Sky conditions: clear
Temperature: 55 F (13 C)
Dew Point: 55 F (13 C)
Relative Humidity: 100%
Pressure (altimeter): 30.21 in. Hg (1023 hPa)
ob: KADM 201355Z 00000KT 7SM CLR 13/13 A3021
cycle: 14

Station Type Date Time Source
KADM TAF UTC NOAA

Error!

Example: see airport list